< < Back
Terminal Aerodrome Forecast


Current Version              Previous Versions:   1  2  3  4  5  6  7  8  9  

Terminal Aerodrome Forecast

587
FTUS44 KHUN 010208 AAA
TAFHSV
TAF AMD
KHSV 010208Z 0102/0124 VRB03KT P6SM BKN040 BKN120
      TEMPO 0102/0105 5SM TSRA BR BKN030CB
     FM010500 VRB03KT P6SM VCSH BKN060
     FM010700 VRB03KT P6SM SCT120
     FM011700 12005KT P6SM SCT040=

Latest METAR

316
SAUS80 KWBC 011400 RRD
MTRHSV
METAR KHSV 011353Z 00000KT 7SM FEW004 FEW250 14/13 A3007 RMK AO2 SLP178
VIS SE-S 1 1/2 T01390128 $


USA.gov is the U.S. government's official web portal to all federal, state and local government web resources and services.